createdAt,value
2023-03-06T04:00:23.089Z,4.60
2023-03-06T04:03:01.832Z,5.30
2023-03-06T04:05:37.217Z,4.80
2023-03-06T04:08:07.589Z,4.60
2023-03-06T04:10:39.377Z,4.67
2023-03-06T04:13:10.071Z,4.93
2023-03-06T04:15:42.852Z,4.80
2023-03-06T04:18:12.148Z,4.73
2023-03-06T04:20:40.336Z,4.37
2023-03-06T04:23:08.449Z,4.83
2023-03-06T04:25:36.666Z,5.07
2023-03-06T04:28:07.908Z,4.70
2023-03-06T04:30:36.639Z,4.87
2023-03-06T04:33:06.735Z,4.80
2023-03-06T04:35:35.084Z,4.87
2023-03-06T04:38:07.697Z,5.13
2023-03-06T04:40:37.227Z,5.50
2023-03-06T04:43:06.020Z,5.00
2023-03-06T04:45:36.432Z,5.10
2023-03-06T04:48:06.217Z,5.47
2023-03-06T04:50:34.500Z,6.13
2023-03-06T04:53:04.612Z,5.50
2023-03-06T04:55:32.633Z,5.67
2023-03-06T04:58:00.490Z,5.10
2023-03-06T05:00:31.348Z,6.40
2023-03-06T05:03:00.642Z,6.50
2023-03-06T05:05:29.948Z,6.13
2023-03-06T05:07:58.076Z,6.50
2023-03-06T05:10:26.010Z,6.03
2023-03-06T05:12:53.839Z,6.73
2023-03-06T05:15:21.708Z,7.97
2023-03-06T05:17:49.622Z,7.13
2023-03-06T05:20:18.917Z,6.27
2023-03-06T05:22:48.225Z,6.90
2023-03-06T05:25:16.068Z,6.00
2023-03-06T05:27:44.208Z,6.40
2023-03-06T05:30:14.229Z,7.60
2023-03-06T05:32:42.708Z,7.20
2023-03-06T05:35:18.095Z,7.13
2023-03-06T05:37:45.991Z,6.83
2023-03-06T05:40:16.809Z,7.37
2023-03-06T05:42:44.939Z,6.03
2023-03-06T05:45:13.393Z,7.53
2023-03-06T05:47:41.280Z,6.77
2023-03-06T05:50:10.522Z,6.03
2023-03-06T05:52:39.468Z,6.60
2023-03-06T05:55:08.744Z,6.53
2023-03-06T05:57:37.915Z,6.87
2023-03-06T06:00:07.097Z,6.83
2023-03-06T06:02:40.523Z,6.77
2023-03-06T06:05:11.804Z,6.53
2023-03-06T06:07:40.908Z,7.20
2023-03-06T06:10:09.912Z,6.87
2023-03-06T06:12:39.326Z,6.77
2023-03-06T06:15:08.335Z,7.70
2023-03-06T06:17:36.199Z,7.00
2023-03-06T06:20:04.499Z,6.87
2023-03-06T06:22:32.315Z,7.07
2023-03-06T06:25:00.171Z,7.07
2023-03-06T06:27:28.122Z,7.00
2023-03-06T06:29:57.319Z,7.30
2023-03-06T06:32:25.219Z,6.53
2023-03-06T06:34:53.220Z,6.57
2023-03-06T06:37:21.113Z,6.50
2023-03-06T06:39:48.950Z,7.07
2023-03-06T06:42:38.939Z,8.00
2023-03-06T06:45:07.569Z,8.20
2023-03-06T06:47:38.140Z,7.20
2023-03-06T06:50:07.093Z,7.07
2023-03-06T06:52:35.092Z,7.17
2023-03-06T06:55:02.935Z,6.87
2023-03-06T06:57:30.766Z,7.60
2023-03-06T06:59:58.593Z,7.33
2023-03-06T07:02:27.823Z,7.40
2023-03-06T07:05:04.107Z,6.53
2023-03-06T07:07:35.234Z,7.40
2023-03-06T07:10:03.610Z,7.03
2023-03-06T07:12:32.791Z,7.20
2023-03-06T07:15:00.627Z,7.00
2023-03-06T07:17:29.780Z,7.20
2023-03-06T07:19:57.732Z,7.10
2023-03-06T07:22:25.686Z,7.77
2023-03-06T07:24:53.564Z,7.77
2023-03-06T07:27:22.903Z,8.13
2023-03-06T07:29:50.772Z,7.47
2023-03-06T07:32:18.883Z,8.30
2023-03-06T07:34:48.121Z,8.27
2023-03-06T07:37:16.181Z,8.23
2023-03-06T07:39:44.102Z,7.93
2023-03-06T07:42:13.615Z,7.77
2023-03-06T07:44:48.401Z,8.43
2023-03-06T07:47:16.315Z,9.40
2023-03-06T07:49:44.111Z,8.93
2023-03-06T07:52:13.746Z,8.80
2023-03-06T07:54:41.956Z,8.90
2023-03-06T07:57:09.817Z,8.53
2023-03-06T07:59:37.657Z,9.00
2023-03-06T08:02:05.554Z,8.77
2023-03-06T08:04:34.026Z,9.60
2023-03-06T08:07:03.223Z,9.07
2023-03-06T08:09:32.586Z,8.67
2023-03-06T08:12:00.432Z,8.97
2023-03-06T08:14:28.338Z,9.20
2023-03-06T08:16:56.947Z,9.30
2023-03-06T08:19:24.775Z,9.70
2023-03-06T08:21:52.607Z,9.43
2023-03-06T08:24:20.450Z,8.87
2023-03-06T08:26:49.663Z,8.83
2023-03-06T08:29:17.638Z,9.00
2023-03-06T08:31:47.077Z,8.67
2023-03-06T08:34:17.482Z,9.17
2023-03-06T08:36:45.430Z,10.00
2023-03-06T08:39:14.028Z,9.83
2023-03-06T08:41:43.162Z,10.43
2023-03-06T08:44:12.398Z,13.17
2023-03-06T08:46:40.595Z,15.50
2023-03-06T08:49:08.520Z,15.17
2023-03-06T08:51:36.971Z,14.20
2023-03-06T08:54:05.186Z,10.83
2023-03-06T08:56:34.579Z,9.00
2023-03-06T08:59:04.976Z,8.73
2023-03-06T09:01:36.599Z,8.93
2023-03-06T09:04:06.227Z,9.13
2023-03-06T09:06:36.604Z,9.10
2023-03-06T09:09:05.510Z,9.33
2023-03-06T09:11:33.755Z,8.73
2023-03-06T09:14:01.634Z,7.70
2023-03-06T09:16:29.671Z,8.73
2023-03-06T09:18:58.939Z,9.07
2023-03-06T09:21:28.822Z,7.80
2023-03-06T09:23:57.082Z,7.60
2023-03-06T09:26:39.517Z,7.77
2023-03-06T09:29:12.803Z,7.57
2023-03-06T09:31:40.802Z,7.53
2023-03-06T09:34:09.996Z,7.70
2023-03-06T09:36:49.499Z,8.00
2023-03-06T09:39:23.084Z,7.77
2023-03-06T09:41:51.728Z,7.57
2023-03-06T09:44:22.213Z,7.60
2023-03-06T09:47:26.329Z,7.47
2023-03-06T09:50:08.566Z,8.13
2023-03-06T09:52:43.383Z,7.73
2023-03-06T09:55:13.968Z,7.77
2023-03-06T09:57:46.378Z,7.80
2023-03-06T10:00:17.437Z,8.83
2023-03-06T10:02:49.092Z,7.43
2023-03-06T10:05:22.463Z,8.00
2023-03-06T10:07:56.165Z,8.20
2023-03-06T10:10:26.881Z,7.90
2023-03-06T10:13:06.845Z,7.17
2023-03-06T10:15:37.263Z,7.50
2023-03-06T10:18:06.223Z,7.13
2023-03-06T10:20:41.960Z,8.67
2023-03-06T10:23:34.162Z,7.90
2023-03-06T10:26:05.077Z,7.00
2023-03-06T10:28:41.828Z,7.57
2023-03-06T10:31:16.294Z,6.87
2023-03-06T10:33:53.773Z,7.20
2023-03-06T10:36:26.926Z,7.17
2023-03-06T10:38:56.616Z,6.97
2023-03-06T10:41:28.107Z,6.93
2023-03-06T10:44:18.711Z,6.77
2023-03-06T10:46:48.907Z,6.67
2023-03-06T10:49:27.890Z,6.43
2023-03-06T10:52:03.370Z,6.33
2023-03-06T10:54:33.273Z,6.33
2023-03-06T10:57:19.186Z,7.10
2023-03-06T10:59:53.422Z,6.83
2023-03-06T11:02:28.330Z,6.93
2023-03-06T11:04:58.417Z,6.47
2023-03-06T11:07:29.056Z,6.30
2023-03-06T11:10:08.651Z,6.27
2023-03-06T11:12:38.239Z,6.67
2023-03-06T11:15:14.076Z,6.73
2023-03-06T11:17:50.928Z,6.37
2023-03-06T11:20:20.570Z,6.30
2023-03-06T11:22:52.857Z,6.50
2023-03-06T11:25:23.443Z,6.50
2023-03-06T11:27:58.031Z,6.67
2023-03-06T11:30:31.219Z,6.43
2023-03-06T11:33:02.125Z,6.00
2023-03-06T11:35:35.073Z,7.30
2023-03-06T11:38:12.522Z,7.30
2023-03-06T11:40:45.734Z,12.47
2023-03-06T11:43:23.213Z,18.10
2023-03-06T11:45:58.934Z,7.77
2023-03-06T11:48:32.569Z,7.27
2023-03-06T11:51:07.289Z,7.23
2023-03-06T11:53:40.342Z,6.27
2023-03-06T11:56:23.629Z,6.20
2023-03-06T11:59:02.286Z,5.90
2023-03-06T12:01:36.148Z,6.03
2023-03-06T12:04:38.854Z,6.73
2023-03-06T12:07:19.194Z,6.47
2023-03-06T12:09:55.675Z,6.70
2023-03-06T12:12:52.899Z,6.13
2023-03-06T12:15:30.487Z,6.60
2023-03-06T12:18:12.601Z,6.77
2023-03-06T12:20:52.873Z,6.60
2023-03-06T12:23:33.890Z,7.37
2023-03-06T12:26:15.122Z,6.30
2023-03-06T12:29:03.339Z,7.80
2023-03-06T12:31:46.725Z,7.30
2023-03-06T12:34:32.328Z,7.57
2023-03-06T12:37:09.530Z,7.90
2023-03-06T12:39:54.631Z,9.52
2023-03-06T12:42:40.415Z,8.37
2023-03-06T12:45:31.498Z,8.57
2023-03-06T12:47:59.869Z,27.90
2023-03-06T12:50:30.426Z,10.77
2023-03-06T12:53:01.203Z,8.10
2023-03-06T12:55:31.601Z,7.67
2023-03-06T12:58:36.903Z,9.40
2023-03-06T13:01:07.338Z,7.68
2023-03-06T13:03:48.583Z,7.55
2023-03-06T13:06:50.972Z,7.93
2023-03-06T13:09:23.600Z,7.90
2023-03-06T13:12:16.062Z,6.93
2023-03-06T13:15:20.981Z,7.27
2023-03-06T13:17:50.561Z,7.17
2023-03-06T13:20:35.341Z,7.77
2023-03-06T13:23:42.602Z,7.90
2023-03-06T13:26:12.468Z,7.43
2023-03-06T13:28:44.845Z,7.13
2023-03-06T13:31:26.616Z,7.40
2023-03-06T13:33:59.239Z,7.03
2023-03-06T13:36:32.358Z,6.80
2023-03-06T13:39:09.751Z,7.07
2023-03-06T13:41:44.070Z,7.20
2023-03-06T13:44:39.826Z,7.10
2023-03-06T13:47:19.600Z,7.43
2023-03-06T13:49:49.500Z,7.27
2023-03-06T13:52:30.295Z,6.83
2023-03-06T13:55:06.717Z,6.97
2023-03-06T13:57:44.626Z,10.67
2023-03-06T14:00:57.937Z,9.20
2023-03-06T14:03:58.170Z,10.90
2023-03-06T14:06:51.797Z,7.93
2023-03-06T14:09:29.824Z,7.97
2023-03-06T14:12:00.691Z,8.43
2023-03-06T14:14:40.448Z,8.53
2023-03-06T14:17:15.947Z,7.22
2023-03-06T14:19:44.170Z,7.10
2023-03-06T14:22:18.633Z,6.87
2023-03-06T14:24:58.024Z,7.10
2023-03-06T14:27:45.090Z,7.47
2023-03-06T14:30:16.132Z,7.30
2023-03-06T14:32:44.996Z,7.50
2023-03-06T14:35:25.738Z,7.00
2023-03-06T14:37:58.119Z,7.10
2023-03-06T14:40:31.409Z,6.80
2023-03-06T14:43:20.137Z,7.07
2023-03-06T14:45:52.929Z,7.40
2023-03-06T14:48:20.991Z,7.47
2023-03-06T14:50:52.403Z,7.37
2023-03-06T14:53:25.424Z,6.90
2023-03-06T14:55:55.873Z,7.07
2023-03-06T14:58:29.660Z,6.70
2023-03-06T15:01:01.172Z,6.43
2023-03-06T15:03:36.086Z,7.17
2023-03-06T15:06:04.996Z,6.80
2023-03-06T15:08:39.048Z,6.83
2023-03-06T15:11:07.976Z,6.57
2023-03-06T15:13:36.152Z,6.97
2023-03-06T15:16:06.055Z,7.30
2023-03-06T15:18:36.152Z,7.43
2023-03-06T15:21:15.714Z,7.07
2023-03-06T15:23:49.492Z,7.80
2023-03-06T15:26:23.509Z,7.07
2023-03-06T15:29:22.153Z,7.40
2023-03-06T15:31:50.252Z,6.53
2023-03-06T15:34:23.427Z,7.07
2023-03-06T15:36:55.159Z,7.37
2023-03-06T15:39:46.413Z,6.87
2023-03-06T15:42:20.286Z,6.90
2023-03-06T15:44:50.488Z,8.30
2023-03-06T15:47:18.833Z,8.53
2023-03-06T15:49:48.948Z,7.50
2023-03-06T15:52:16.969Z,11.03
2023-03-06T15:54:46.215Z,8.70
2023-03-06T15:57:22.125Z,7.63
2023-03-06T15:59:51.154Z,9.07
2023-03-06T16:02:20.408Z,11.10
2023-03-06T16:04:48.787Z,12.03
2023-03-06T16:07:17.370Z,8.60
2023-03-06T16:09:46.560Z,9.00
2023-03-06T16:12:17.583Z,9.30
2023-03-06T16:14:45.687Z,7.30
2023-03-06T16:17:13.958Z,8.77
2023-03-06T16:19:43.006Z,7.03
2023-03-06T16:22:11.007Z,6.57
2023-03-06T16:24:39.063Z,6.70
2023-03-06T16:27:18.361Z,7.47
2023-03-06T16:29:46.438Z,7.67
2023-03-06T16:32:14.464Z,6.60
2023-03-06T16:34:42.302Z,6.97
2023-03-06T16:37:12.058Z,6.83
2023-03-06T16:39:39.944Z,6.47
2023-03-06T16:42:09.355Z,7.00
2023-03-06T16:44:37.372Z,5.67
2023-03-06T16:47:05.418Z,6.90
2023-03-06T16:49:33.279Z,6.43
2023-03-06T16:52:01.882Z,6.60
2023-03-06T16:54:29.893Z,5.87
2023-03-06T16:56:58.022Z,6.70
2023-03-06T16:59:27.289Z,6.57
2023-03-06T17:01:55.193Z,7.10
2023-03-06T17:04:24.551Z,5.90
2023-03-06T17:06:53.710Z,7.30
2023-03-06T17:09:21.961Z,7.00
2023-03-06T17:11:49.800Z,7.73
2023-03-06T17:14:17.793Z,7.00
2023-03-06T17:16:46.984Z,7.30
2023-03-06T17:19:16.101Z,6.70
2023-03-06T17:21:44.711Z,6.13
2023-03-06T17:24:12.645Z,8.03
2023-03-06T17:26:40.474Z,7.30
2023-03-06T17:29:09.218Z,6.00
2023-03-06T17:31:37.080Z,6.57
2023-03-06T17:34:06.272Z,6.00
2023-03-06T17:36:34.286Z,6.30
2023-03-06T17:39:03.194Z,6.40
2023-03-06T17:41:32.782Z,6.77
2023-03-06T17:44:01.623Z,7.00
2023-03-06T17:46:31.692Z,6.83
2023-03-06T17:48:59.675Z,6.47
2023-03-06T17:51:29.090Z,6.27
2023-03-06T17:53:57.414Z,6.73
2023-03-06T17:56:25.366Z,6.73
2023-03-06T17:58:53.387Z,7.60
2023-03-06T18:01:23.226Z,7.37
2023-03-06T18:03:51.910Z,7.60
2023-03-06T18:06:22.006Z,6.60
2023-03-06T18:08:52.902Z,7.50
2023-03-06T18:11:21.452Z,7.13
2023-03-06T18:13:49.662Z,7.87
2023-03-06T18:16:19.909Z,7.97
2023-03-06T18:18:48.284Z,7.97
2023-03-06T18:21:17.121Z,7.83
2023-03-06T18:23:44.986Z,7.73
2023-03-06T18:26:16.548Z,7.60
2023-03-06T18:28:45.841Z,8.07
2023-03-06T18:31:18.291Z,8.20
2023-03-06T18:33:48.164Z,8.00
2023-03-06T18:36:16.829Z,8.50
2023-03-06T18:38:45.580Z,9.03
2023-03-06T18:41:15.275Z,8.03
2023-03-06T18:43:43.217Z,7.90
2023-03-06T18:46:11.450Z,8.63
2023-03-06T18:48:39.296Z,8.27
2023-03-06T18:51:08.566Z,9.17
2023-03-06T18:53:37.689Z,8.87
2023-03-06T18:56:05.905Z,8.20
2023-03-06T18:58:35.133Z,8.53
2023-03-06T19:01:07.332Z,8.63
2023-03-06T19:03:35.434Z,8.30
2023-03-06T19:06:06.466Z,8.10
2023-03-06T19:08:34.924Z,8.93
2023-03-06T19:11:03.807Z,8.97
2023-03-06T19:13:32.357Z,9.20
2023-03-06T19:16:01.630Z,8.57
2023-03-06T19:18:30.505Z,9.10
2023-03-06T19:21:08.668Z,9.33
2023-03-06T19:23:37.093Z,9.60
2023-03-06T19:26:05.298Z,9.07
2023-03-06T19:28:33.435Z,9.60
2023-03-06T19:31:08.896Z,9.50
2023-03-06T19:33:37.751Z,9.50
2023-03-06T19:36:06.334Z,9.13
2023-03-06T19:38:34.603Z,9.60
2023-03-06T19:41:02.524Z,9.37
2023-03-06T19:43:31.820Z,8.83
2023-03-06T19:46:00.583Z,10.43
2023-03-06T19:48:29.977Z,10.20
2023-03-06T19:50:58.105Z,9.30
2023-03-06T19:53:26.018Z,10.43
2023-03-06T19:55:53.935Z,9.83
2023-03-06T19:58:21.816Z,9.77
2023-03-06T20:00:49.722Z,10.07
2023-03-06T20:03:17.567Z,9.93
2023-03-06T20:05:50.077Z,10.27
2023-03-06T20:08:18.110Z,10.47
2023-03-06T20:10:46.061Z,9.80
2023-03-06T20:13:14.309Z,9.30
2023-03-06T20:15:42.239Z,10.27
2023-03-06T20:18:10.209Z,9.40
2023-03-06T20:20:39.875Z,9.60
2023-03-06T20:23:10.577Z,9.67
2023-03-06T20:25:38.713Z,10.30
2023-03-06T20:28:06.677Z,9.83
2023-03-06T20:30:38.409Z,10.00
2023-03-06T20:33:06.554Z,10.13
2023-03-06T20:35:34.385Z,10.67
2023-03-06T20:38:02.632Z,10.33
2023-03-06T20:40:32.086Z,10.43
2023-03-06T20:43:00.104Z,9.87
2023-03-06T20:45:28.349Z,10.80
2023-03-06T20:47:57.106Z,11.33
2023-03-06T20:50:25.491Z,9.67
2023-03-06T20:52:55.027Z,10.83
2023-03-06T20:55:23.410Z,11.30
2023-03-06T20:57:53.280Z,10.37
2023-03-06T21:00:21.708Z,10.60
2023-03-06T21:02:49.563Z,10.87
2023-03-06T21:05:17.597Z,10.47
2023-03-06T21:07:45.502Z,10.63
2023-03-06T21:10:14.494Z,10.57
2023-03-06T21:12:42.357Z,10.23
2023-03-06T21:15:12.926Z,10.60
2023-03-06T21:17:40.865Z,10.33
2023-03-06T21:20:10.458Z,11.33
2023-03-06T21:22:38.338Z,10.90
2023-03-06T21:25:06.790Z,10.07
2023-03-06T21:27:34.934Z,9.17
2023-03-06T21:30:04.726Z,9.37
2023-03-06T21:32:34.083Z,9.67
2023-03-06T21:35:01.949Z,10.77
2023-03-06T21:37:29.838Z,9.40
2023-03-06T21:40:00.225Z,9.93
2023-03-06T21:42:28.101Z,9.67
2023-03-06T21:44:55.927Z,9.80
2023-03-06T21:47:23.764Z,9.37
2023-03-06T21:49:52.960Z,9.23
2023-03-06T21:52:20.859Z,9.40
2023-03-06T21:54:49.925Z,10.03
2023-03-06T21:57:17.788Z,9.60
2023-03-06T21:59:45.603Z,10.53
2023-03-06T22:02:14.498Z,9.97
2023-03-06T22:04:42.529Z,10.13
2023-03-06T22:07:11.739Z,9.70
2023-03-06T22:09:39.588Z,9.87
2023-03-06T22:12:07.724Z,9.23
2023-03-06T22:14:35.586Z,10.07
2023-03-06T22:17:03.537Z,9.70
2023-03-06T22:19:31.370Z,9.53
2023-03-06T22:21:59.271Z,10.80
2023-03-06T22:24:28.500Z,10.53
2023-03-06T22:26:56.555Z,10.40
2023-03-06T22:29:24.819Z,10.50
2023-03-06T22:31:53.015Z,11.70
2023-03-06T22:34:20.931Z,12.20
2023-03-06T22:36:49.446Z,11.37
2023-03-06T22:39:17.721Z,10.67
2023-03-06T22:41:47.161Z,10.73
2023-03-06T22:44:17.731Z,10.53
2023-03-06T22:46:46.411Z,10.83
2023-03-06T22:49:16.760Z,11.00
2023-03-06T22:51:45.209Z,10.80
2023-03-06T22:54:13.036Z,10.50
2023-03-06T22:56:40.909Z,10.73
2023-03-06T22:59:10.228Z,11.20
